sensor_id;sensor_type;location;lat;lon;timestamp;temperature;humidity
77052;SHT30;65980;44.898;8.602;2023-04-15T00:00:55;12.31;60.83
77052;SHT30;65980;44.898;8.602;2023-04-15T00:04:00;12.41;60.59
77052;SHT30;65980;44.898;8.602;2023-04-15T00:07:04;12.39;61.04
77052;SHT30;65980;44.898;8.602;2023-04-15T00:10:08;12.53;60.68
77052;SHT30;65980;44.898;8.602;2023-04-15T00:13:12;12.49;60.50
77052;SHT30;65980;44.898;8.602;2023-04-15T00:16:16;12.35;60.95
77052;SHT30;65980;44.898;8.602;2023-04-15T00:19:20;12.35;60.82
77052;SHT30;65980;44.898;8.602;2023-04-15T00:22:25;12.25;60.96
77052;SHT30;65980;44.898;8.602;2023-04-15T00:25:31;12.41;60.65
77052;SHT30;65980;44.898;8.602;2023-04-15T00:28:35;12.35;60.71
77052;SHT30;65980;44.898;8.602;2023-04-15T00:31:41;12.05;62.15
77052;SHT30;65980;44.898;8.602;2023-04-15T00:34:50;12.00;62.47
77052;SHT30;65980;44.898;8.602;2023-04-15T00:37:55;12.07;62.30
77052;SHT30;65980;44.898;8.602;2023-04-15T00:40:59;12.00;62.98
77052;SHT30;65980;44.898;8.602;2023-04-15T00:44:05;11.94;63.28
77052;SHT30;65980;44.898;8.602;2023-04-15T00:47:09;12.03;63.30
77052;SHT30;65980;44.898;8.602;2023-04-15T00:50:14;11.97;63.57
77052;SHT30;65980;44.898;8.602;2023-04-15T00:53:18;11.93;63.64
77052;SHT30;65980;44.898;8.602;2023-04-15T00:56:24;11.77;64.54
77052;SHT30;65980;44.898;8.602;2023-04-15T00:59:30;11.79;64.32
77052;SHT30;65980;44.898;8.602;2023-04-15T01:02:34;11.52;66.09
77052;SHT30;65980;44.898;8.602;2023-04-15T01:05:39;11.75;64.76
77052;SHT30;65980;44.898;8.602;2023-04-15T01:08:45;11.79;64.80
77052;SHT30;65980;44.898;8.602;2023-04-15T01:11:49;11.75;65.09
77052;SHT30;65980;44.898;8.602;2023-04-15T01:14:54;11.51;65.85
77052;SHT30;65980;44.898;8.602;2023-04-15T01:18:01;11.61;65.26
77052;SHT30;65980;44.898;8.602;2023-04-15T01:21:07;11.55;65.32
77052;SHT30;65980;44.898;8.602;2023-04-15T01:24:12;11.58;65.82
77052;SHT30;65980;44.898;8.602;2023-04-15T01:27:17;11.51;65.81
77052;SHT30;65980;44.898;8.602;2023-04-15T01:30:22;11.45;65.85
77052;SHT30;65980;44.898;8.602;2023-04-15T01:33:27;11.38;65.82
77052;SHT30;65980;44.898;8.602;2023-04-15T01:36:50;11.40;66.11
77052;SHT30;65980;44.898;8.602;2023-04-15T01:39:54;11.12;67.47
77052;SHT30;65980;44.898;8.602;2023-04-15T01:43:00;10.80;68.03
77052;SHT30;65980;44.898;8.602;2023-04-15T01:46:06;10.79;67.95
77052;SHT30;65980;44.898;8.602;2023-04-15T01:49:15;10.69;68.91
77052;SHT30;65980;44.898;8.602;2023-04-15T01:52:21;10.90;68.67
77052;SHT30;65980;44.898;8.602;2023-04-15T01:55:27;11.04;67.28
77052;SHT30;65980;44.898;8.602;2023-04-15T01:58:32;11.11;67.47
77052;SHT30;65980;44.898;8.602;2023-04-15T02:01:38;11.03;67.33
77052;SHT30;65980;44.898;8.602;2023-04-15T02:04:43;10.11;70.60
77052;SHT30;65980;44.898;8.602;2023-04-15T02:07:50;10.27;71.02
77052;SHT30;65980;44.898;8.602;2023-04-15T02:10:55;10.46;70.18
77052;SHT30;65980;44.898;8.602;2023-04-15T02:14:00;10.38;71.33
77052;SHT30;65980;44.898;8.602;2023-04-15T02:17:05;10.58;71.71
77052;SHT30;65980;44.898;8.602;2023-04-15T02:20:13;10.22;73.46
77052;SHT30;65980;44.898;8.602;2023-04-15T02:23:19;10.56;71.62
77052;SHT30;65980;44.898;8.602;2023-04-15T02:26:24;10.27;70.67
77052;SHT30;65980;44.898;8.602;2023-04-15T02:29:30;9.75;72.75
77052;SHT30;65980;44.898;8.602;2023-04-15T02:32:35;9.38;74.72
77052;SHT30;65980;44.898;8.602;2023-04-15T02:35:42;9.18;75.27
77052;SHT30;65980;44.898;8.602;2023-04-15T02:38:49;9.17;75.75
77052;SHT30;65980;44.898;8.602;2023-04-15T02:41:58;9.15;75.44
77052;SHT30;65980;44.898;8.602;2023-04-15T02:45:07;9.43;74.05
77052;SHT30;65980;44.898;8.602;2023-04-15T02:48:13;9.53;74.29
77052;SHT30;65980;44.898;8.602;2023-04-15T02:51:19;9.56;73.50
77052;SHT30;65980;44.898;8.602;2023-04-15T02:54:24;9.83;72.42
77052;SHT30;65980;44.898;8.602;2023-04-15T02:57:31;9.72;73.02
77052;SHT30;65980;44.898;8.602;2023-04-15T03:00:42;9.93;72.06
77052;SHT30;65980;44.898;8.602;2023-04-15T03:03:47;9.56;72.60
77052;SHT30;65980;44.898;8.602;2023-04-15T03:06:52;9.48;72.56
77052;SHT30;65980;44.898;8.602;2023-04-15T03:09:57;9.52;72.12
77052;SHT30;65980;44.898;8.602;2023-04-15T03:13:03;9.55;72.45
77052;SHT30;65980;44.898;8.602;2023-04-15T03:16:09;9.39;73.10
77052;SHT30;65980;44.898;8.602;2023-04-15T03:19:15;9.62;72.47
77052;SHT30;65980;44.898;8.602;2023-04-15T03:22:21;9.73;71.70
77052;SHT30;65980;44.898;8.602;2023-04-15T03:25:27;9.25;73.00
77052;SHT30;65980;44.898;8.602;2023-04-15T03:28:34;9.41;72.48
77052;SHT30;65980;44.898;8.602;2023-04-15T03:31:41;9.56;71.04
77052;SHT30;65980;44.898;8.602;2023-04-15T03:34:46;9.56;72.25
77052;SHT30;65980;44.898;8.602;2023-04-15T03:37:51;9.55;71.44
77052;SHT30;65980;44.898;8.602;2023-04-15T03:40:56;9.58;71.39
77052;SHT30;65980;44.898;8.602;2023-04-15T03:44:01;9.70;70.43
77052;SHT30;65980;44.898;8.602;2023-04-15T03:47:06;9.66;69.65
77052;SHT30;65980;44.898;8.602;2023-04-15T03:50:11;9.08;70.68
77052;SHT30;65980;44.898;8.602;2023-04-15T03:53:16;9.00;72.35
77052;SHT30;65980;44.898;8.602;2023-04-15T03:56:21;9.28;71.23
77052;SHT30;65980;44.898;8.602;2023-04-15T03:59:27;9.14;71.03
77052;SHT30;65980;44.898;8.602;2023-04-15T04:02:32;9.36;70.59
77052;SHT30;65980;44.898;8.602;2023-04-15T04:05:37;9.41;70.80
77052;SHT30;65980;44.898;8.602;2023-04-15T04:08:45;9.18;71.35
77052;SHT30;65980;44.898;8.602;2023-04-15T04:11:50;8.94;71.38
77052;SHT30;65980;44.898;8.602;2023-04-15T04:14:56;9.03;71.62
77052;SHT30;65980;44.898;8.602;2023-04-15T04:18:01;9.03;70.11
77052;SHT30;65980;44.898;8.602;2023-04-15T04:21:07;9.00;70.50
77052;SHT30;65980;44.898;8.602;2023-04-15T04:24:13;8.81;72.34
77052;SHT30;65980;44.898;8.602;2023-04-15T04:27:19;8.34;73.53
77052;SHT30;65980;44.898;8.602;2023-04-15T04:30:25;8.32;73.82
77052;SHT30;65980;44.898;8.602;2023-04-15T04:33:30;8.34;73.79
77052;SHT30;65980;44.898;8.602;2023-04-15T04:36:36;8.05;75.07
77052;SHT30;65980;44.898;8.602;2023-04-15T04:39:41;7.73;75.14
77052;SHT30;65980;44.898;8.602;2023-04-15T04:42:46;7.79;75.55
77052;SHT30;65980;44.898;8.602;2023-04-15T04:45:52;7.59;75.40
77052;SHT30;65980;44.898;8.602;2023-04-15T04:48:57;7.36;75.86
77052;SHT30;65980;44.898;8.602;2023-04-15T04:52:02;7.41;76.13
77052;SHT30;65980;44.898;8.602;2023-04-15T04:55:07;7.47;75.40
77052;SHT30;65980;44.898;8.602;2023-04-15T04:58:12;7.27;75.98
77052;SHT30;65980;44.898;8.602;2023-04-15T05:01:17;7.27;75.66
77052;SHT30;65980;44.898;8.602;2023-04-15T05:04:22;7.28;75.52
77052;SHT30;65980;44.898;8.602;2023-04-15T05:07:27;7.20;75.70
77052;SHT30;65980;44.898;8.602;2023-04-15T05:10:32;7.11;75.29
77052;SHT30;65980;44.898;8.602;2023-04-15T05:13:37;7.08;75.41
77052;SHT30;65980;44.898;8.602;2023-04-15T05:16:43;7.08;75.09
77052;SHT30;65980;44.898;8.602;2023-04-15T05:19:49;7.11;75.20
77052;SHT30;65980;44.898;8.602;2023-04-15T05:22:59;7.24;74.24
77052;SHT30;65980;44.898;8.602;2023-04-15T05:26:05;7.15;74.78
77052;SHT30;65980;44.898;8.602;2023-04-15T05:29:11;7.08;74.65
77052;SHT30;65980;44.898;8.602;2023-04-15T05:32:21;7.15;74.28
77052;SHT30;65980;44.898;8.602;2023-04-15T05:35:28;7.36;73.69
77052;SHT30;65980;44.898;8.602;2023-04-15T05:38:36;7.41;73.36
77052;SHT30;65980;44.898;8.602;2023-04-15T05:41:43;7.22;74.14
77052;SHT30;65980;44.898;8.602;2023-04-15T05:44:48;7.21;73.64
77052;SHT30;65980;44.898;8.602;2023-04-15T05:47:53;7.17;73.14
77052;SHT30;65980;44.898;8.602;2023-04-15T05:50:58;7.18;73.62
77052;SHT30;65980;44.898;8.602;2023-04-15T05:54:04;7.15;74.19
77052;SHT30;65980;44.898;8.602;2023-04-15T05:57:10;7.14;74.41
77052;SHT30;65980;44.898;8.602;2023-04-15T06:00:15;7.11;74.51
77052;SHT30;65980;44.898;8.602;2023-04-15T06:03:21;7.42;73.70
77052;SHT30;65980;44.898;8.602;2023-04-15T06:06:26;7.85;72.20
77052;SHT30;65980;44.898;8.602;2023-04-15T06:09:31;7.86;72.47
77052;SHT30;65980;44.898;8.602;2023-04-15T06:12:37;7.73;74.05
77052;SHT30;65980;44.898;8.602;2023-04-15T06:15:46;7.89;73.24
77052;SHT30;65980;44.898;8.602;2023-04-15T06:18:52;7.97;72.41
77052;SHT30;65980;44.898;8.602;2023-04-15T06:21:57;8.13;70.06
77052;SHT30;65980;44.898;8.602;2023-04-15T06:25:05;8.45;70.81
77052;SHT30;65980;44.898;8.602;2023-04-15T06:28:12;9.00;67.31
77052;SHT30;65980;44.898;8.602;2023-04-15T06:31:17;9.24;69.01
77052;SHT30;65980;44.898;8.602;2023-04-15T06:34:22;9.65;67.12
77052;SHT30;65980;44.898;8.602;2023-04-15T06:37:27;9.83;66.56
77052;SHT30;65980;44.898;8.602;2023-04-15T06:40:32;9.98;66.04
77052;SHT30;65980;44.898;8.602;2023-04-15T06:43:37;10.17;64.98
77052;SHT30;65980;44.898;8.602;2023-04-15T06:46:43;10.38;64.66
77052;SHT30;65980;44.898;8.602;2023-04-15T06:49:49;10.44;62.83
77052;SHT30;65980;44.898;8.602;2023-04-15T06:52:55;10.50;62.96
77052;SHT30;65980;44.898;8.602;2023-04-15T06:56:01;10.96;61.94
77052;SHT30;65980;44.898;8.602;2023-04-15T06:59:05;11.04;62.39
77052;SHT30;65980;44.898;8.602;2023-04-15T07:02:11;11.24;61.92
77052;SHT30;65980;44.898;8.602;2023-04-15T07:05:17;11.35;61.99
77052;SHT30;65980;44.898;8.602;2023-04-15T07:08:23;11.00;63.22
77052;SHT30;65980;44.898;8.602;2023-04-15T07:11:29;10.81;65.02
77052;SHT30;65980;44.898;8.602;2023-04-15T07:14:34;11.11;63.55
77052;SHT30;65980;44.898;8.602;2023-04-15T07:17:40;11.07;64.57
77052;SHT30;65980;44.898;8.602;2023-04-15T07:20:47;11.62;63.66
77052;SHT30;65980;44.898;8.602;2023-04-15T07:23:52;11.87;61.67
77052;SHT30;65980;44.898;8.602;2023-04-15T07:26:57;12.10;62.41
77052;SHT30;65980;44.898;8.602;2023-04-15T07:30:03;12.31;60.68
77052;SHT30;65980;44.898;8.602;2023-04-15T07:33:08;12.53;60.99
77052;SHT30;65980;44.898;8.602;2023-04-15T07:36:13;12.49;60.88
77052;SHT30;65980;44.898;8.602;2023-04-15T07:39:19;12.72;60.34
77052;SHT30;65980;44.898;8.602;2023-04-15T07:42:25;12.89;58.81
77052;SHT30;65980;44.898;8.602;2023-04-15T07:45:31;12.59;59.54
77052;SHT30;65980;44.898;8.602;2023-04-15T07:48:36;12.32;61.15
77052;SHT30;65980;44.898;8.602;2023-04-15T07:51:45;12.49;63.03
77052;SHT30;65980;44.898;8.602;2023-04-15T07:54:50;13.00;60.62
77052;SHT30;65980;44.898;8.602;2023-04-15T07:57:58;13.22;59.00
77052;SHT30;65980;44.898;8.602;2023-04-15T08:01:06;13.61;59.21
77052;SHT30;65980;44.898;8.602;2023-04-15T08:04:13;13.70;56.46
77052;SHT30;65980;44.898;8.602;2023-04-15T08:07:21;13.76;56.41
77052;SHT30;65980;44.898;8.602;2023-04-15T08:10:27;13.87;56.02
77052;SHT30;65980;44.898;8.602;2023-04-15T08:13:34;13.97;53.16
77052;SHT30;65980;44.898;8.602;2023-04-15T08:16:40;14.03;55.29
77052;SHT30;65980;44.898;8.602;2023-04-15T08:19:47;13.99;56.51
77052;SHT30;65980;44.898;8.602;2023-04-15T08:22:54;14.28;55.68
77052;SHT30;65980;44.898;8.602;2023-04-15T08:26:01;14.44;56.69
77052;SHT30;65980;44.898;8.602;2023-04-15T08:29:07;14.71;56.56
77052;SHT30;65980;44.898;8.602;2023-04-15T08:32:13;14.90;56.75
77052;SHT30;65980;44.898;8.602;2023-04-15T08:35:20;14.87;57.03
77052;SHT30;65980;44.898;8.602;2023-04-15T08:38:26;15.12;57.23
77052;SHT30;65980;44.898;8.602;2023-04-15T08:41:50;15.38;55.63
77052;SHT30;65980;44.898;8.602;2023-04-15T08:45:07;15.39;55.50
77052;SHT30;65980;44.898;8.602;2023-04-15T08:51:44;15.70;56.45
77052;SHT30;65980;44.898;8.602;2023-04-15T08:54:51;15.83;55.13
77052;SHT30;65980;44.898;8.602;2023-04-15T08:58:01;16.06;54.62
77052;SHT30;65980;44.898;8.602;2023-04-15T09:01:13;16.01;56.35
77052;SHT30;65980;44.898;8.602;2023-04-15T09:04:20;16.17;55.57
77052;SHT30;65980;44.898;8.602;2023-04-15T09:07:34;16.04;53.90
77052;SHT30;65980;44.898;8.602;2023-04-15T09:10:40;16.16;54.54
77052;SHT30;65980;44.898;8.602;2023-04-15T09:13:53;16.22;53.85
77052;SHT30;65980;44.898;8.602;2023-04-15T09:17:00;16.62;54.43
77052;SHT30;65980;44.898;8.602;2023-04-15T09:20:09;17.02;52.08
77052;SHT30;65980;44.898;8.602;2023-04-15T09:23:17;18.42;49.29
77052;SHT30;65980;44.898;8.602;2023-04-15T09:26:33;20.42;45.17
77052;SHT30;65980;44.898;8.602;2023-04-15T09:29:53;21.42;42.93
77052;SHT30;65980;44.898;8.602;2023-04-15T09:33:03;23.82;37.56
77052;SHT30;65980;44.898;8.602;2023-04-15T09:39:53;26.41;32.36
77052;SHT30;65980;44.898;8.602;2023-04-15T09:43:02;24.19;36.64
77052;SHT30;65980;44.898;8.602;2023-04-15T09:46:10;25.10;36.52
77052;SHT30;65980;44.898;8.602;2023-04-15T09:49:15;24.23;37.29
77052;SHT30;65980;44.898;8.602;2023-04-15T09:52:22;22.21;40.96
77052;SHT30;65980;44.898;8.602;2023-04-15T09:55:29;20.79;43.97
77052;SHT30;65980;44.898;8.602;2023-04-15T09:58:37;19.38;44.15
77052;SHT30;65980;44.898;8.602;2023-04-15T10:01:50;20.21;44.52
77052;SHT30;65980;44.898;8.602;2023-04-15T10:04:56;19.94;46.42
77052;SHT30;65980;44.898;8.602;2023-04-15T10:11:45;19.65;45.66
77052;SHT30;65980;44.898;8.602;2023-04-15T10:15:16;20.32;46.29
77052;SHT30;65980;44.898;8.602;2023-04-15T10:18:37;19.85;45.49
77052;SHT30;65980;44.898;8.602;2023-04-15T10:21:50;20.31;44.92
77052;SHT30;65980;44.898;8.602;2023-04-15T10:24:59;22.18;43.01
77052;SHT30;65980;44.898;8.602;2023-04-15T10:28:10;23.02;40.77
77052;SHT30;65980;44.898;8.602;2023-04-15T10:31:21;21.07;42.52
77052;SHT30;65980;44.898;8.602;2023-04-15T10:41:37;25.79;36.32
77052;SHT30;65980;44.898;8.602;2023-04-15T10:44:44;25.84;35.04
77052;SHT30;65980;44.898;8.602;2023-04-15T10:48:06;25.03;35.96
77052;SHT30;65980;44.898;8.602;2023-04-15T10:51:39;22.68;39.04
77052;SHT30;65980;44.898;8.602;2023-04-15T10:58:26;23.57;37.73
77052;SHT30;65980;44.898;8.602;2023-04-15T11:01:53;22.59;40.37
77052;SHT30;65980;44.898;8.602;2023-04-15T11:08:58;21.61;43.87
77052;SHT30;65980;44.898;8.602;2023-04-15T11:12:14;20.28;46.12
77052;SHT30;65980;44.898;8.602;2023-04-15T11:18:53;20.03;47.43
77052;SHT30;65980;44.898;8.602;2023-04-15T11:22:29;19.73;48.47
77052;SHT30;65980;44.898;8.602;2023-04-15T11:25:38;19.54;47.00
77052;SHT30;65980;44.898;8.602;2023-04-15T11:28:45;19.78;47.82
77052;SHT30;65980;44.898;8.602;2023-04-15T11:32:08;19.47;47.11
77052;SHT30;65980;44.898;8.602;2023-04-15T11:35:34;19.57;48.99
77052;SHT30;65980;44.898;8.602;2023-04-15T11:38:46;20.18;46.07
77052;SHT30;65980;44.898;8.602;2023-04-15T11:42:00;20.18;46.80
77052;SHT30;65980;44.898;8.602;2023-04-15T11:45:17;20.03;47.34
77052;SHT30;65980;44.898;8.602;2023-04-15T11:48:53;19.98;46.10
77052;SHT30;65980;44.898;8.602;2023-04-15T11:52:21;19.76;46.36
77052;SHT30;65980;44.898;8.602;2023-04-15T11:55:25;19.83;48.66
77052;SHT30;65980;44.898;8.602;2023-04-15T11:58:33;19.36;48.60
77052;SHT30;65980;44.898;8.602;2023-04-15T12:01:47;19.66;47.84
77052;SHT30;65980;44.898;8.602;2023-04-15T12:05:10;19.47;48.01
77052;SHT30;65980;44.898;8.602;2023-04-15T12:08:19;19.42;47.62
77052;SHT30;65980;44.898;8.602;2023-04-15T12:14:39;19.06;45.98
77052;SHT30;65980;44.898;8.602;2023-04-15T12:17:48;18.93;47.37
77052;SHT30;65980;44.898;8.602;2023-04-15T12:20:52;18.93;47.44
77052;SHT30;65980;44.898;8.602;2023-04-15T12:24:00;19.04;48.05
77052;SHT30;65980;44.898;8.602;2023-04-15T12:27:14;19.08;49.85
77052;SHT30;65980;44.898;8.602;2023-04-15T12:30:27;19.13;49.44
77052;SHT30;65980;44.898;8.602;2023-04-15T12:33:37;19.20;49.46
77052;SHT30;65980;44.898;8.602;2023-04-15T12:36:42;19.25;49.61
77052;SHT30;65980;44.898;8.602;2023-04-15T12:39:48;19.24;47.96
77052;SHT30;65980;44.898;8.602;2023-04-15T12:43:01;19.41;48.69
77052;SHT30;65980;44.898;8.602;2023-04-15T12:46:11;19.38;48.44
77052;SHT30;65980;44.898;8.602;2023-04-15T12:49:18;19.17;49.22
77052;SHT30;65980;44.898;8.602;2023-04-15T12:52:27;19.48;48.38
77052;SHT30;65980;44.898;8.602;2023-04-15T12:55:33;19.27;48.06
77052;SHT30;65980;44.898;8.602;2023-04-15T12:58:40;19.15;47.75
77052;SHT30;65980;44.898;8.602;2023-04-15T13:01:48;18.86;49.62
77052;SHT30;65980;44.898;8.602;2023-04-15T13:04:53;18.79;49.86
77052;SHT30;65980;44.898;8.602;2023-04-15T13:07:57;19.03;49.33
77052;SHT30;65980;44.898;8.602;2023-04-15T13:11:02;19.02;48.56
77052;SHT30;65980;44.898;8.602;2023-04-15T13:14:07;18.89;48.76
77052;SHT30;65980;44.898;8.602;2023-04-15T13:17:12;19.11;48.59
77052;SHT30;65980;44.898;8.602;2023-04-15T13:20:17;19.15;48.56
77052;SHT30;65980;44.898;8.602;2023-04-15T13:23:29;19.00;47.99
77052;SHT30;65980;44.898;8.602;2023-04-15T13:26:35;18.79;48.90
77052;SHT30;65980;44.898;8.602;2023-04-15T13:29:41;19.04;48.21
77052;SHT30;65980;44.898;8.602;2023-04-15T13:32:48;19.11;48.57
77052;SHT30;65980;44.898;8.602;2023-04-15T13:35:54;19.28;48.67
77052;SHT30;65980;44.898;8.602;2023-04-15T13:38:58;19.18;47.32
77052;SHT30;65980;44.898;8.602;2023-04-15T13:42:03;19.24;48.79
77052;SHT30;65980;44.898;8.602;2023-04-15T13:45:08;19.27;48.82
77052;SHT30;65980;44.898;8.602;2023-04-15T13:48:19;19.48;46.69
77052;SHT30;65980;44.898;8.602;2023-04-15T13:51:24;19.35;46.85
77052;SHT30;65980;44.898;8.602;2023-04-15T13:54:52;19.69;46.59
77052;SHT30;65980;44.898;8.602;2023-04-15T13:58:10;19.58;47.02
77052;SHT30;65980;44.898;8.602;2023-04-15T14:01:15;19.51;45.51
77052;SHT30;65980;44.898;8.602;2023-04-15T14:04:20;19.34;46.39
77052;SHT30;65980;44.898;8.602;2023-04-15T14:07:27;19.17;46.59
77052;SHT30;65980;44.898;8.602;2023-04-15T14:10:34;19.11;47.61
77052;SHT30;65980;44.898;8.602;2023-04-15T14:13:41;19.59;46.82
77052;SHT30;65980;44.898;8.602;2023-04-15T14:16:51;19.69;45.17
77052;SHT30;65980;44.898;8.602;2023-04-15T14:19:54;20.10;45.08
77052;SHT30;65980;44.898;8.602;2023-04-15T14:23:07;19.68;45.63
77052;SHT30;65980;44.898;8.602;2023-04-15T14:26:16;20.00;44.88
77052;SHT30;65980;44.898;8.602;2023-04-15T14:29:20;20.07;44.45
77052;SHT30;65980;44.898;8.602;2023-04-15T14:32:30;20.79;42.70
77052;SHT30;65980;44.898;8.602;2023-04-15T14:35:36;21.24;41.10
77052;SHT30;65980;44.898;8.602;2023-04-15T14:38:47;21.11;41.66
77052;SHT30;65980;44.898;8.602;2023-04-15T14:41:54;20.62;42.84
77052;SHT30;65980;44.898;8.602;2023-04-15T14:45:05;20.58;43.18
77052;SHT30;65980;44.898;8.602;2023-04-15T14:48:39;20.00;44.15
77052;SHT30;65980;44.898;8.602;2023-04-15T14:51:51;19.78;44.12
77052;SHT30;65980;44.898;8.602;2023-04-15T14:55:13;19.21;43.41
77052;SHT30;65980;44.898;8.602;2023-04-15T14:58:31;19.31;44.60
77052;SHT30;65980;44.898;8.602;2023-04-15T15:01:36;18.83;44.80
77052;SHT30;65980;44.898;8.602;2023-04-15T15:04:47;19.17;44.47
77052;SHT30;65980;44.898;8.602;2023-04-15T15:07:56;19.11;44.79
77052;SHT30;65980;44.898;8.602;2023-04-15T15:11:00;18.72;45.29
77052;SHT30;65980;44.898;8.602;2023-04-15T15:14:04;18.73;46.53
77052;SHT30;65980;44.898;8.602;2023-04-15T15:17:08;19.00;46.19
77052;SHT30;65980;44.898;8.602;2023-04-15T15:20:15;18.55;47.74
77052;SHT30;65980;44.898;8.602;2023-04-15T15:23:21;18.56;47.68
77052;SHT30;65980;44.898;8.602;2023-04-15T15:26:29;18.77;47.10
77052;SHT30;65980;44.898;8.602;2023-04-15T15:29:36;18.95;46.08
77052;SHT30;65980;44.898;8.602;2023-04-15T15:33:07;19.17;45.04
77052;SHT30;65980;44.898;8.602;2023-04-15T15:37:26;19.82;44.55
77052;SHT30;65980;44.898;8.602;2023-04-15T15:40:38;19.47;44.45
77052;SHT30;65980;44.898;8.602;2023-04-15T15:43:50;19.68;44.11
77052;SHT30;65980;44.898;8.602;2023-04-15T15:47:16;19.42;44.24
77052;SHT30;65980;44.898;8.602;2023-04-15T15:53:58;19.24;44.21
77052;SHT30;65980;44.898;8.602;2023-04-15T15:57:15;19.04;45.39
77052;SHT30;65980;44.898;8.602;2023-04-15T16:00:20;19.03;44.23
77052;SHT30;65980;44.898;8.602;2023-04-15T16:03:30;18.97;44.42
77052;SHT30;65980;44.898;8.602;2023-04-15T16:06:34;18.87;43.85
77052;SHT30;65980;44.898;8.602;2023-04-15T16:09:51;18.53;43.70
77052;SHT30;65980;44.898;8.602;2023-04-15T16:13:05;18.17;45.55
77052;SHT30;65980;44.898;8.602;2023-04-15T16:16:18;18.37;45.52
77052;SHT30;65980;44.898;8.602;2023-04-15T16:19:23;18.10;45.82
77052;SHT30;65980;44.898;8.602;2023-04-15T16:22:39;18.25;45.65
77052;SHT30;65980;44.898;8.602;2023-04-15T16:25:50;18.18;45.13
77052;SHT30;65980;44.898;8.602;2023-04-15T16:28:55;18.21;45.28
77052;SHT30;65980;44.898;8.602;2023-04-15T16:32:13;18.31;44.88
77052;SHT30;65980;44.898;8.602;2023-04-15T16:35:22;18.16;44.99
77052;SHT30;65980;44.898;8.602;2023-04-15T16:38:35;18.25;44.76
77052;SHT30;65980;44.898;8.602;2023-04-15T16:41:40;18.14;45.24
77052;SHT30;65980;44.898;8.602;2023-04-15T16:44:57;18.28;45.19
77052;SHT30;65980;44.898;8.602;2023-04-15T16:48:02;18.28;44.83
77052;SHT30;65980;44.898;8.602;2023-04-15T16:51:18;18.17;46.31
77052;SHT30;65980;44.898;8.602;2023-04-15T16:54:26;18.11;44.85
77052;SHT30;65980;44.898;8.602;2023-04-15T16:57:41;18.38;44.56
77052;SHT30;65980;44.898;8.602;2023-04-15T17:00:49;19.04;43.08
77052;SHT30;65980;44.898;8.602;2023-04-15T17:03:57;19.76;41.91
77052;SHT30;65980;44.898;8.602;2023-04-15T17:07:31;20.27;40.81
77052;SHT30;65980;44.898;8.602;2023-04-15T17:10:36;21.06;39.10
77052;SHT30;65980;44.898;8.602;2023-04-15T17:13:40;21.04;38.74
77052;SHT30;65980;44.898;8.602;2023-04-15T17:16:51;22.40;36.70
77052;SHT30;65980;44.898;8.602;2023-04-15T17:20:02;21.57;37.72
77052;SHT30;65980;44.898;8.602;2023-04-15T17:23:35;20.71;39.73
77052;SHT30;65980;44.898;8.602;2023-04-15T17:26:54;19.98;41.01
77052;SHT30;65980;44.898;8.602;2023-04-15T17:30:17;19.24;43.77
77052;SHT30;65980;44.898;8.602;2023-04-15T17:33:57;17.90;48.63
77052;SHT30;65980;44.898;8.602;2023-04-15T17:37:24;17.82;49.16
77052;SHT30;65980;44.898;8.602;2023-04-15T17:41:00;17.53;49.81
77052;SHT30;65980;44.898;8.602;2023-04-15T17:44:25;17.48;50.67
77052;SHT30;65980;44.898;8.602;2023-04-15T17:47:54;17.23;50.87
77052;SHT30;65980;44.898;8.602;2023-04-15T17:51:23;17.32;51.19
77052;SHT30;65980;44.898;8.602;2023-04-15T17:55:07;17.23;51.62
77052;SHT30;65980;44.898;8.602;2023-04-15T17:59:16;17.17;52.14
77052;SHT30;65980;44.898;8.602;2023-04-15T18:02:41;17.00;52.75
77052;SHT30;65980;44.898;8.602;2023-04-15T18:06:20;16.87;52.89
77052;SHT30;65980;44.898;8.602;2023-04-15T18:09:55;16.79;52.66
77052;SHT30;65980;44.898;8.602;2023-04-15T18:13:24;16.84;52.52
77052;SHT30;65980;44.898;8.602;2023-04-15T18:16:57;16.58;53.17
77052;SHT30;65980;44.898;8.602;2023-04-15T18:20:24;16.70;52.73
77052;SHT30;65980;44.898;8.602;2023-04-15T18:23:40;16.65;52.80
77052;SHT30;65980;44.898;8.602;2023-04-15T18:26:46;16.48;53.40
77052;SHT30;65980;44.898;8.602;2023-04-15T18:29:51;16.51;52.75
77052;SHT30;65980;44.898;8.602;2023-04-15T18:33:00;16.53;52.77
77052;SHT30;65980;44.898;8.602;2023-04-15T18:36:15;16.35;52.92
77052;SHT30;65980;44.898;8.602;2023-04-15T18:39:21;16.51;53.18
77052;SHT30;65980;44.898;8.602;2023-04-15T18:42:26;16.56;53.11
77052;SHT30;65980;44.898;8.602;2023-04-15T18:45:30;16.53;53.18
77052;SHT30;65980;44.898;8.602;2023-04-15T18:48:34;16.42;52.45
77052;SHT30;65980;44.898;8.602;2023-04-15T18:51:38;16.10;54.56
77052;SHT30;65980;44.898;8.602;2023-04-15T18:54:53;15.54;55.97
77052;SHT30;65980;44.898;8.602;2023-04-15T19:01:46;15.34;57.97
77052;SHT30;65980;44.898;8.602;2023-04-15T19:13:14;15.20;58.96
77052;SHT30;65980;44.898;8.602;2023-04-15T19:16:52;15.12;57.98
77052;SHT30;65980;44.898;8.602;2023-04-15T19:20:06;15.20;58.06
77052;SHT30;65980;44.898;8.602;2023-04-15T19:23:11;15.16;57.49
77052;SHT30;65980;44.898;8.602;2023-04-15T19:26:19;15.06;57.16
77052;SHT30;65980;44.898;8.602;2023-04-15T19:29:25;14.87;58.04
77052;SHT30;65980;44.898;8.602;2023-04-15T19:32:37;14.79;58.62
77052;SHT30;65980;44.898;8.602;2023-04-15T19:39:57;14.41;59.42
77052;SHT30;65980;44.898;8.602;2023-04-15T19:43:30;14.29;60.08
77052;SHT30;65980;44.898;8.602;2023-04-15T19:46:48;14.21;57.98
77052;SHT30;65980;44.898;8.602;2023-04-15T19:50:03;14.11;58.05
77052;SHT30;65980;44.898;8.602;2023-04-15T20:02:16;13.82;57.75
77052;SHT30;65980;44.898;8.602;2023-04-15T20:05:34;13.74;58.16
77052;SHT30;65980;44.898;8.602;2023-04-15T20:08:39;13.70;58.20
77052;SHT30;65980;44.898;8.602;2023-04-15T20:15:13;13.58;58.79
77052;SHT30;65980;44.898;8.602;2023-04-15T20:22:03;13.41;59.93
77052;SHT30;65980;44.898;8.602;2023-04-15T20:28:54;13.24;60.52
77052;SHT30;65980;44.898;8.602;2023-04-15T20:31:59;13.10;61.22
77052;SHT30;65980;44.898;8.602;2023-04-15T20:38:38;12.89;62.12
77052;SHT30;65980;44.898;8.602;2023-04-15T20:41:42;12.86;61.75
77052;SHT30;65980;44.898;8.602;2023-04-15T20:44:53;12.86;62.81
77052;SHT30;65980;44.898;8.602;2023-04-15T20:51:30;12.87;63.16
77052;SHT30;65980;44.898;8.602;2023-04-15T20:54:40;12.86;62.32
77052;SHT30;65980;44.898;8.602;2023-04-15T20:57:44;12.82;63.19
77052;SHT30;65980;44.898;8.602;2023-04-15T21:01:06;13.08;62.27
77052;SHT30;65980;44.898;8.602;2023-04-15T21:04:22;13.27;61.52
77052;SHT30;65980;44.898;8.602;2023-04-15T21:07:32;13.34;61.36
77052;SHT30;65980;44.898;8.602;2023-04-15T21:10:44;13.46;60.98
77052;SHT30;65980;44.898;8.602;2023-04-15T21:13:54;13.42;61.22
77052;SHT30;65980;44.898;8.602;2023-04-15T21:16:59;13.55;61.03
77052;SHT30;65980;44.898;8.602;2023-04-15T21:20:12;13.62;61.00
77052;SHT30;65980;44.898;8.602;2023-04-15T21:23:18;13.56;61.60